createdAt,value
2019-06-07T00:00:39.188Z,99.90
2019-06-07T00:03:09.270Z,99.90
2019-06-07T00:05:40.026Z,99.90
2019-06-07T00:08:17.153Z,99.90
2019-06-07T00:10:43.964Z,99.90
2019-06-07T00:13:18.071Z,99.90
2019-06-07T00:15:48.763Z,99.90
2019-06-07T00:18:25.452Z,99.90
2019-06-07T00:20:52.418Z,99.90
2019-06-07T00:23:23.389Z,99.90
2019-06-07T00:25:54.492Z,99.90
2019-06-07T00:28:25.584Z,99.90
2019-06-07T00:30:56.711Z,99.90
2019-06-07T00:33:27.777Z,99.90
2019-06-07T00:35:58.839Z,99.90
2019-06-07T00:38:29.893Z,99.90
2019-06-07T00:41:00.922Z,99.90
2019-06-07T00:43:31.949Z,99.90
2019-06-07T00:46:02.959Z,99.90
2019-06-07T00:48:33.996Z,99.90
2019-06-07T00:51:06.050Z,99.90
2019-06-07T00:53:37.097Z,99.90
2019-06-07T00:56:08.112Z,99.90
2019-06-07T00:58:39.159Z,99.90
2019-06-07T01:01:10.199Z,99.90
2019-06-07T01:03:41.187Z,99.90
2019-06-07T01:06:12.615Z,99.90
2019-06-07T01:08:43.736Z,99.90
2019-06-07T01:11:15.934Z,99.90
2019-06-07T01:13:47.651Z,99.90
2019-06-07T01:16:20.708Z,99.90
2019-06-07T01:18:51.566Z,99.90
2019-06-07T01:21:24.813Z,99.90
2019-06-07T01:24:10.836Z,99.90
2019-06-07T01:26:30.392Z,99.90
2019-06-07T01:29:00.564Z,99.90
2019-06-07T01:31:33.633Z,99.90
2019-06-07T01:34:04.780Z,99.90
2019-06-07T01:36:35.770Z,99.90
2019-06-07T01:39:07.747Z,99.90
2019-06-07T01:41:38.824Z,99.90
2019-06-07T01:44:09.886Z,99.90
2019-06-07T01:46:40.918Z,99.90
2019-06-07T01:49:12.016Z,99.90
2019-06-07T01:51:45.520Z,99.90
2019-06-07T01:56:49.242Z,99.90
2019-06-07T01:59:21.876Z,99.90
2019-06-07T02:01:52.938Z,99.90
2019-06-07T02:04:27.256Z,99.90
2019-06-07T02:06:56.703Z,99.90
2019-06-07T02:09:29.880Z,99.90
2019-06-07T02:12:00.365Z,99.90
2019-06-07T02:14:33.468Z,99.90
2019-06-07T02:17:04.405Z,99.90
2019-06-07T02:19:35.414Z,99.90
2019-06-07T02:22:06.614Z,99.90
2019-06-07T02:24:37.602Z,99.90
2019-06-07T02:27:08.706Z,99.90
2019-06-07T02:29:39.728Z,99.90
2019-06-07T02:32:10.796Z,99.90
2019-06-07T02:34:41.775Z,99.90
2019-06-07T02:37:12.807Z,99.90
2019-06-07T02:39:43.874Z,99.90
2019-06-07T02:42:14.915Z,99.90
2019-06-07T02:44:45.882Z,99.90
2019-06-07T02:47:16.926Z,99.90
2019-06-07T02:49:47.928Z,99.90
2019-06-07T02:52:18.911Z,99.90
2019-06-07T02:54:50.008Z,99.90
2019-06-07T02:57:21.086Z,99.90
2019-06-07T03:00:07.128Z,99.90
2019-06-07T03:02:26.630Z,99.90
2019-06-07T03:04:57.399Z,99.90
2019-06-07T03:07:33.046Z,99.90
2019-06-07T03:10:04.767Z,99.90
2019-06-07T03:12:39.251Z,99.90
2019-06-07T03:15:30.124Z,99.90
2019-06-07T03:18:01.471Z,99.90
2019-06-07T03:20:35.089Z,99.90
2019-06-07T03:23:07.716Z,99.90
2019-06-07T03:25:40.582Z,99.90
2019-06-07T03:28:11.663Z,99.90
2019-06-07T03:30:57.865Z,99.90
2019-06-07T03:33:16.488Z,99.90
2019-06-07T03:35:47.555Z,99.90
2019-06-07T03:38:18.549Z,99.90
2019-06-07T03:40:49.570Z,99.90
2019-06-07T03:43:20.654Z,99.90
2019-06-07T03:45:51.693Z,99.90
2019-06-07T03:48:22.676Z,99.90
2019-06-07T03:51:04.242Z,99.90
2019-06-07T03:53:29.669Z,99.90
2019-06-07T03:56:00.233Z,99.90
2019-06-07T03:58:36.630Z,99.90
2019-06-07T04:01:03.943Z,99.90
2019-06-07T04:03:43.544Z,99.90
2019-06-07T04:06:07.576Z,99.90
2019-06-07T04:08:41.959Z,99.90
2019-06-07T04:11:11.305Z,99.90
2019-06-07T04:13:43.143Z,99.90
2019-06-07T04:16:14.524Z,99.90
2019-06-07T04:18:45.567Z,99.90
2019-06-07T04:21:16.660Z,99.90
2019-06-07T04:23:47.716Z,99.90
2019-06-07T04:26:18.820Z,99.90
2019-06-07T04:31:22.506Z,99.90
2019-06-07T04:33:53.656Z,99.90
2019-06-07T04:36:43.047Z,99.90
2019-06-07T04:38:58.753Z,99.90
2019-06-07T04:41:33.429Z,99.90
2019-06-07T04:44:04.241Z,99.90
2019-06-07T04:46:40.825Z,99.90
2019-06-07T04:49:08.812Z,99.90
2019-06-07T04:51:41.107Z,99.90
2019-06-07T04:54:12.890Z,99.90
2019-06-07T04:56:44.876Z,99.90
2019-06-07T05:00:00.482Z,99.90
2019-06-07T05:01:48.696Z,99.90
2019-06-07T05:04:19.783Z,99.90
2019-06-07T05:06:50.804Z,99.90
2019-06-07T05:09:22.158Z,99.90
2019-06-07T05:11:53.236Z,99.90
2019-06-07T05:14:24.312Z,99.90
2019-06-07T05:16:55.391Z,99.90
2019-06-07T05:19:26.473Z,99.90
2019-06-07T05:22:04.340Z,99.90
2019-06-07T05:24:30.746Z,99.90
2019-06-07T05:27:02.513Z,99.90
2019-06-07T05:29:36.801Z,99.90
2019-06-07T05:32:06.406Z,99.90
2019-06-07T05:34:40.054Z,99.90
2019-06-07T05:37:11.874Z,99.90
2019-06-07T05:39:46.288Z,99.90
2019-06-07T05:42:15.405Z,99.90
2019-06-07T05:44:46.541Z,99.90
2019-06-07T05:47:17.657Z,99.90
2019-06-07T05:49:48.841Z,99.90
2019-06-07T05:52:19.999Z,99.90
2019-06-07T05:54:52.511Z,99.90
2019-06-07T05:57:23.485Z,99.90
2019-06-07T05:59:55.654Z,99.90
2019-06-07T06:02:26.736Z,99.90
2019-06-07T06:04:57.820Z,99.90
2019-06-07T06:07:28.916Z,99.90
2019-06-07T06:10:00.009Z,99.90
2019-06-07T06:12:35.245Z,99.90
2019-06-07T06:15:03.880Z,99.90
2019-06-07T06:17:37.783Z,99.90
2019-06-07T06:20:08.166Z,99.90
2019-06-07T06:22:43.409Z,99.90
2019-06-07T06:30:18.152Z,99.90
2019-06-07T06:32:56.882Z,99.90
2019-06-07T06:35:22.136Z,99.90
2019-06-07T06:37:53.710Z,99.90
2019-06-07T06:40:24.893Z,99.90
2019-06-07T06:42:56.055Z,99.90
2019-06-07T06:45:27.114Z,99.90
2019-06-07T06:47:58.375Z,99.90
2019-06-07T06:50:29.897Z,99.90
2019-06-07T06:53:01.050Z,99.90
2019-06-07T06:55:32.186Z,99.90
2019-06-07T06:58:03.281Z,99.90
2019-06-07T07:01:06.388Z,99.90
2019-06-07T07:03:56.498Z,99.90
2019-06-07T07:06:25.073Z,99.90
2019-06-07T07:08:38.632Z,99.90
2019-06-07T07:11:09.715Z,99.90
2019-06-07T07:13:41.636Z,99.90
2019-06-07T07:16:13.477Z,99.90
2019-06-07T07:18:46.880Z,99.90
2019-06-07T07:21:17.280Z,99.90
2019-06-07T07:24:12.387Z,99.90
2019-06-07T07:26:21.158Z,99.90
2019-06-07T07:28:57.223Z,99.90
2019-06-07T07:31:24.905Z,99.90
2019-06-07T07:36:39.353Z,99.90
2019-06-07T07:39:05.319Z,99.90
2019-06-07T07:41:35.416Z,99.90
2019-06-07T07:44:07.925Z,99.90
2019-06-07T07:46:39.595Z,99.90
2019-06-07T07:49:10.734Z,99.90
2019-06-07T07:51:41.851Z,99.90
2019-06-07T07:54:13.044Z,99.90
2019-06-07T07:56:45.340Z,99.90
2019-06-07T07:59:16.798Z,99.90
2019-06-07T08:01:48.584Z,99.90
2019-06-07T08:04:38.438Z,99.90
2019-06-07T08:06:55.994Z,99.90
2019-06-07T08:09:26.819Z,99.90
2019-06-07T08:12:00.773Z,99.90
2019-06-07T08:14:30.704Z,99.90
2019-06-07T08:17:01.897Z,99.90
2019-06-07T08:19:33.245Z,99.90
2019-06-07T08:22:04.341Z,99.90
2019-06-07T08:24:35.356Z,99.90
2019-06-07T08:27:25.258Z,99.90
2019-06-07T08:29:44.919Z,99.90
2019-06-07T08:32:12.454Z,99.90
2019-06-07T08:34:43.883Z,99.90
2019-06-07T08:37:15.176Z,99.90
2019-06-07T08:39:46.459Z,99.90
2019-06-07T08:42:22.028Z,99.90
2019-06-07T08:44:51.874Z,99.90
2019-06-07T08:47:23.704Z,99.90
2019-06-07T08:49:59.312Z,99.90
2019-06-07T08:52:28.187Z,99.90
2019-06-07T08:55:03.389Z,99.90
2019-06-07T08:57:32.389Z,99.90
2019-06-07T09:00:07.097Z,99.90
2019-06-07T09:02:36.734Z,99.90
2019-06-07T09:05:12.196Z,99.90
2019-06-07T09:07:41.445Z,99.90
2019-06-07T09:10:15.199Z,99.90
2019-06-07T09:12:46.446Z,99.90
2019-06-07T09:15:23.125Z,99.90
2019-06-07T09:20:36.830Z,99.90
2019-06-07T09:23:11.581Z,99.90
2019-06-07T09:25:55.873Z,99.90
2019-06-07T09:28:19.170Z,99.90
2019-06-07T09:30:45.387Z,99.90
2019-06-07T09:33:16.840Z,99.90
2019-06-07T09:35:48.270Z,99.90
2019-06-07T09:38:25.613Z,99.90
2019-06-07T09:40:52.518Z,99.90
2019-06-07T09:45:58.706Z,99.90
2019-06-07T09:51:09.726Z,99.90
2019-06-07T09:53:35.898Z,99.90
2019-06-07T09:56:11.724Z,99.90
2019-06-07T09:58:51.710Z,99.90
2019-06-07T10:01:14.240Z,99.90
2019-06-07T10:03:45.811Z,99.90
2019-06-07T10:06:17.220Z,99.90
2019-06-07T10:11:21.435Z,99.90
2019-06-07T10:13:52.936Z,99.90
2019-06-07T10:16:24.020Z,99.90
2019-06-07T10:18:55.063Z,99.90
2019-06-07T10:21:26.289Z,99.90
2019-06-07T10:23:57.324Z,99.90
2019-06-07T10:26:28.387Z,99.90
2019-06-07T10:28:59.711Z,99.90
2019-06-07T10:31:30.869Z,99.90
2019-06-07T10:34:02.333Z,99.90
2019-06-07T10:36:33.568Z,99.90
2019-06-07T10:39:06.970Z,99.90
2019-06-07T10:41:38.080Z,99.90
2019-06-07T10:44:09.426Z,99.90
2019-06-07T10:46:40.712Z,99.90
2019-06-07T10:49:12.201Z,99.90
2019-06-07T10:51:43.440Z,99.90
2019-06-07T10:54:24.762Z,99.90
2019-06-07T10:56:47.240Z,99.90
2019-06-07T10:59:18.278Z,99.90
2019-06-07T11:01:49.334Z,99.90
2019-06-07T11:04:20.366Z,99.90
2019-06-07T11:06:51.384Z,99.90
2019-06-07T11:09:22.509Z,99.90
2019-06-07T11:11:53.579Z,99.90
2019-06-07T11:14:24.708Z,99.90
2019-06-07T11:16:55.735Z,99.90
2019-06-07T11:19:26.903Z,99.90
2019-06-07T11:21:58.131Z,99.90
2019-06-07T11:24:29.236Z,99.90
2019-06-07T11:27:00.334Z,99.90
2019-06-07T11:29:31.393Z,99.90
2019-06-07T11:32:02.497Z,99.90
2019-06-07T11:34:33.675Z,99.90
2019-06-07T11:37:04.740Z,99.90
2019-06-07T11:39:35.800Z,99.90
2019-06-07T11:42:07.908Z,99.90
2019-06-07T11:44:55.480Z,99.90
2019-06-07T11:47:12.451Z,99.90
2019-06-07T11:49:43.547Z,99.90
2019-06-07T11:52:15.802Z,99.90
2019-06-07T11:54:48.152Z,99.90
2019-06-07T11:57:19.352Z,99.90
2019-06-07T11:59:50.569Z,99.90
2019-06-07T12:02:21.588Z,99.90
2019-06-07T12:04:52.701Z,99.90
2019-06-07T12:07:23.740Z,99.90
2019-06-07T12:09:56.642Z,99.90
2019-06-07T12:12:27.646Z,99.90
2019-06-07T12:14:58.640Z,99.90
2019-06-07T12:17:29.686Z,99.90
2019-06-07T12:20:00.866Z,99.90
2019-06-07T12:22:32.097Z,99.90
2019-06-07T12:25:05.819Z,99.90
2019-06-07T12:27:35.996Z,99.90
2019-06-07T12:30:11.128Z,99.90
2019-06-07T12:37:20.445Z,99.90
2019-06-07T12:39:49.637Z,99.90
2019-06-07T12:42:20.676Z,99.90
2019-06-07T12:44:52.724Z,99.90
2019-06-07T12:47:23.752Z,99.90
2019-06-07T12:49:54.811Z,99.90
2019-06-07T12:52:25.820Z,99.90
2019-06-07T12:54:56.863Z,99.90
2019-06-07T12:57:27.917Z,99.90
2019-06-07T12:59:58.984Z,99.90
2019-06-07T13:02:30.040Z,99.90
2019-06-07T13:05:04.557Z,99.90
2019-06-07T13:07:33.755Z,99.90
2019-06-07T13:10:05.646Z,99.90
2019-06-07T13:12:36.785Z,99.90
2019-06-07T13:15:08.463Z,99.90
2019-06-07T13:17:40.624Z,99.90
2019-06-07T13:20:13.486Z,99.90
2019-06-07T13:22:44.600Z,99.90
2019-06-07T13:25:16.450Z,99.90
2019-06-07T13:27:47.568Z,99.90
2019-06-07T13:30:21.197Z,99.90
2019-06-07T13:32:52.790Z,99.90
2019-06-07T13:35:25.336Z,99.90
2019-06-07T13:37:59.622Z,99.90
2019-06-07T13:40:30.670Z,99.90
2019-06-07T13:43:01.746Z,99.90
2019-06-07T13:45:32.915Z,99.90
2019-06-07T13:48:03.980Z,99.90
2019-06-07T13:50:36.150Z,99.90
2019-06-07T13:53:07.235Z,97.50
2019-06-07T13:55:38.345Z,92.50
2019-06-07T13:58:09.405Z,90.80
2019-06-07T14:00:40.577Z,92.80
2019-06-07T14:03:11.699Z,92.20
2019-06-07T14:05:42.813Z,94.00
2019-06-07T14:08:14.005Z,94.20
2019-06-07T14:10:45.421Z,91.90
2019-06-07T14:13:16.562Z,90.70
2019-06-07T14:15:47.851Z,90.20
2019-06-07T14:18:20.233Z,88.80
2019-06-07T14:20:52.544Z,90.80
2019-06-07T14:23:42.309Z,90.60
2019-06-07T14:25:56.761Z,86.10
2019-06-07T14:28:31.803Z,86.70
2019-06-07T14:31:00.748Z,86.30
2019-06-07T14:33:32.569Z,84.40
2019-06-07T14:36:04.755Z,84.00
2019-06-07T14:38:37.617Z,83.10
2019-06-07T14:41:08.503Z,84.30
2019-06-07T14:43:39.686Z,82.00
2019-06-07T14:46:10.942Z,80.70
2019-06-07T14:48:42.190Z,79.50
2019-06-07T14:51:13.625Z,75.60
2019-06-07T14:53:44.782Z,74.00
2019-06-07T14:56:15.871Z,75.40
2019-06-07T14:58:46.945Z,75.10
2019-06-07T15:01:18.015Z,73.60
2019-06-07T15:03:49.153Z,76.60
2019-06-07T15:06:20.304Z,72.50
2019-06-07T15:08:51.779Z,74.10
2019-06-07T15:11:23.109Z,75.50
2019-06-07T15:13:54.191Z,76.80
2019-06-07T15:16:25.254Z,78.10
2019-06-07T15:18:56.555Z,80.10
2019-06-07T15:21:28.655Z,83.40
2019-06-07T15:24:00.129Z,86.90
2019-06-07T15:26:32.452Z,89.60
2019-06-07T15:29:03.763Z,91.90
2019-06-07T15:31:36.613Z,92.60
2019-06-07T15:34:07.565Z,92.20
2019-06-07T15:36:38.809Z,95.60
2019-06-07T15:39:10.021Z,92.40
2019-06-07T15:41:41.431Z,90.70
2019-06-07T15:44:12.412Z,90.40
2019-06-07T15:46:44.761Z,87.10
2019-06-07T15:49:16.214Z,80.10
2019-06-07T15:51:47.365Z,80.50
2019-06-07T15:54:18.760Z,77.40
2019-06-07T15:56:50.116Z,77.20
2019-06-07T15:59:21.166Z,76.60
2019-06-07T16:01:52.386Z,76.30
2019-06-07T16:04:23.450Z,73.50
2019-06-07T16:06:54.499Z,74.50
2019-06-07T16:09:25.617Z,71.40
2019-06-07T16:11:56.913Z,71.50
2019-06-07T16:14:27.984Z,74.00
2019-06-07T16:16:59.336Z,75.40
2019-06-07T16:19:31.144Z,77.60
2019-06-07T16:22:02.422Z,79.20
2019-06-07T16:24:33.697Z,79.50
2019-06-07T16:27:04.875Z,79.40
2019-06-07T16:29:36.523Z,75.60
2019-06-07T16:32:07.717Z,75.10
2019-06-07T16:34:39.878Z,73.90
2019-06-07T16:37:11.662Z,72.10
2019-06-07T16:39:42.728Z,69.10
2019-06-07T16:42:13.935Z,71.30
2019-06-07T16:44:45.941Z,71.80
2019-06-07T16:47:17.059Z,72.70
2019-06-07T16:49:49.218Z,71.30
2019-06-07T16:52:20.405Z,72.60
2019-06-07T16:54:51.415Z,71.80
2019-06-07T16:57:22.485Z,72.30
2019-06-07T16:59:53.617Z,71.10
2019-06-07T17:02:24.745Z,71.10
2019-06-07T17:04:56.853Z,70.80
2019-06-07T17:07:28.224Z,71.90
2019-06-07T17:10:00.057Z,73.00
2019-06-07T17:12:31.185Z,72.50
2019-06-07T17:15:03.587Z,72.10
2019-06-07T17:17:35.305Z,71.60
2019-06-07T17:20:08.367Z,70.60
2019-06-07T17:22:41.960Z,72.20
2019-06-07T17:25:15.008Z,72.90
2019-06-07T17:27:48.240Z,73.30
2019-06-07T17:30:24.012Z,74.60
2019-06-07T17:33:00.769Z,74.80
2019-06-07T17:35:55.037Z,75.90
2019-06-07T17:38:29.879Z,76.80
2019-06-07T17:41:02.600Z,78.00
2019-06-07T17:43:48.455Z,77.20
2019-06-07T17:46:09.368Z,78.80
2019-06-07T17:48:47.561Z,78.40
2019-06-07T17:51:18.976Z,79.60
2019-06-07T17:53:52.063Z,80.60
2019-06-07T17:56:23.711Z,81.40
2019-06-07T17:58:55.651Z,82.50
2019-06-07T18:01:40.748Z,83.90
2019-06-07T18:04:03.527Z,86.00
2019-06-07T18:06:36.406Z,88.90
2019-06-07T18:09:09.753Z,91.50
2019-06-07T18:11:42.047Z,94.30
2019-06-07T18:14:14.272Z,97.70
2019-06-07T18:16:48.982Z,99.90
2019-06-07T18:19:21.125Z,99.90
2019-06-07T18:21:58.571Z,99.90
2019-06-07T18:24:26.197Z,99.90
2019-06-07T18:26:58.813Z,99.90
2019-06-07T18:29:30.486Z,99.90
2019-06-07T18:32:02.196Z,99.90
2019-06-07T18:34:34.331Z,99.90
2019-06-07T18:37:06.504Z,99.90
2019-06-07T18:39:38.248Z,99.90
2019-06-07T18:42:09.579Z,99.90
2019-06-07T18:44:41.032Z,99.90
2019-06-07T18:47:12.808Z,99.90
2019-06-07T18:49:44.055Z,99.90
2019-06-07T18:52:19.389Z,99.90
2019-06-07T18:54:50.941Z,99.90
2019-06-07T18:57:23.382Z,99.90
2019-06-07T18:59:54.827Z,99.90
2019-06-07T19:02:28.509Z,99.90
2019-06-07T19:05:00.157Z,99.90
2019-06-07T19:07:32.132Z,99.90
2019-06-07T19:10:03.602Z,99.90
2019-06-07T19:12:38.141Z,99.90
2019-06-07T19:15:10.889Z,99.90
2019-06-07T19:17:42.143Z,99.90
2019-06-07T19:20:14.520Z,99.90
2019-06-07T19:22:45.905Z,99.90
2019-06-07T19:25:17.249Z,99.90
2019-06-07T19:27:48.628Z,99.90
2019-06-07T19:30:21.202Z,99.90
2019-06-07T19:32:53.135Z,99.90
2019-06-07T19:35:24.770Z,99.90
2019-06-07T19:37:56.282Z,99.90
2019-06-07T19:40:27.881Z,99.90
2019-06-07T19:43:00.461Z,99.90
2019-06-07T19:45:32.873Z,99.90
2019-06-07T19:48:05.938Z,99.90
2019-06-07T19:50:38.384Z,99.90
2019-06-07T19:53:11.229Z,99.90
2019-06-07T19:55:42.807Z,99.90
2019-06-07T19:58:14.449Z,99.90
2019-06-07T20:00:46.011Z,99.90
2019-06-07T20:03:17.733Z,99.90
2019-06-07T20:05:49.223Z,99.90
2019-06-07T20:08:21.039Z,99.90
2019-06-07T20:10:52.448Z,99.90
2019-06-07T20:13:23.978Z,99.90
2019-06-07T20:15:56.773Z,99.90
2019-06-07T20:18:28.205Z,99.90
2019-06-07T20:21:00.584Z,99.90
2019-06-07T20:23:34.224Z,99.90
2019-06-07T20:26:06.833Z,99.90
2019-06-07T20:28:38.649Z,99.90
2019-06-07T20:31:10.081Z,99.90
2019-06-07T20:33:41.321Z,99.90
2019-06-07T20:36:13.495Z,99.90
2019-06-07T20:38:46.333Z,99.90
2019-06-07T20:41:17.544Z,99.90
2019-06-07T20:43:50.086Z,99.90
2019-06-07T20:46:23.844Z,99.90
2019-06-07T20:48:55.220Z,99.90
2019-06-07T20:51:26.537Z,99.90
2019-06-07T20:53:58.514Z,99.90
2019-06-07T20:56:30.215Z,99.90
2019-06-07T20:59:02.699Z,99.90
2019-06-07T21:01:34.664Z,99.90
2019-06-07T21:04:07.285Z,99.90
2019-06-07T21:06:39.844Z,99.90
2019-06-07T21:09:11.575Z,99.90
2019-06-07T21:11:43.789Z,99.90
2019-06-07T21:14:19.967Z,99.90
2019-06-07T21:17:06.222Z,99.90
2019-06-07T21:19:37.615Z,99.90
2019-06-07T21:22:08.875Z,99.90
2019-06-07T21:24:48.060Z,99.90
2019-06-07T21:27:26.707Z,99.90
2019-06-07T21:30:00.931Z,99.90
2019-06-07T21:32:37.595Z,99.90
2019-06-07T21:35:13.894Z,99.90
2019-06-07T21:37:52.203Z,99.90
2019-06-07T21:40:26.517Z,99.90
2019-06-07T21:43:04.260Z,99.90
2019-06-07T21:45:44.330Z,99.90
2019-06-07T21:48:20.154Z,99.90
2019-06-07T21:50:59.399Z,99.90
2019-06-07T21:53:38.810Z,99.90
2019-06-07T21:56:13.398Z,99.90
2019-06-07T21:58:49.786Z,99.90
2019-06-07T22:01:30.854Z,99.90
2019-06-07T22:04:11.730Z,99.90
2019-06-07T22:06:57.207Z,99.90
2019-06-07T22:09:29.377Z,99.90
2019-06-07T22:12:07.971Z,99.90
2019-06-07T22:14:47.708Z,99.90
2019-06-07T22:17:39.163Z,99.90
2019-06-07T22:20:17.939Z,99.90
2019-06-07T22:22:58.345Z,99.90
2019-06-07T22:25:59.001Z,99.90
2019-06-07T22:28:39.895Z,99.90
2019-06-07T22:31:22.563Z,99.90
2019-06-07T22:34:15.118Z,99.90
2019-06-07T22:36:52.888Z,99.90
2019-06-07T22:39:28.926Z,99.90
2019-06-07T22:42:08.865Z,99.90
2019-06-07T22:45:12.595Z,99.90
2019-06-07T22:47:48.494Z,99.90
2019-06-07T22:50:49.732Z,99.90
2019-06-07T22:53:31.036Z,99.90
2019-06-07T22:56:21.328Z,99.90
2019-06-07T22:58:58.461Z,99.90
2019-06-07T23:01:44.239Z,99.90
2019-06-07T23:04:24.982Z,99.90
2019-06-07T23:06:56.803Z,99.90
2019-06-07T23:09:39.416Z,99.90
2019-06-07T23:12:20.320Z,99.90
2019-06-07T23:15:03.870Z,99.90
2019-06-07T23:17:45.898Z,99.90
2019-06-07T23:20:19.968Z,99.90
2019-06-07T23:23:00.842Z,99.90
2019-06-07T23:25:37.463Z,99.90
2019-06-07T23:28:20.688Z,99.90
2019-06-07T23:30:55.256Z,99.90
2019-06-07T23:33:33.799Z,99.90
2019-06-07T23:36:04.807Z,99.90
2019-06-07T23:38:35.871Z,99.90
2019-06-07T23:41:11.445Z,99.90
2019-06-07T23:43:42.783Z,99.90
2019-06-07T23:46:13.871Z,99.90
2019-06-07T23:48:44.991Z,99.90
2019-06-07T23:51:16.093Z,99.90
2019-06-07T23:53:47.159Z,99.90
2019-06-07T23:56:18.746Z,99.90
2019-06-07T23:58:50.421Z,99.90
